createdAt,value
2023-12-15T00:01:31.499Z,3.49
2023-12-15T00:03:33.238Z,3.48
2023-12-15T00:05:35.143Z,3.48
2023-12-15T00:07:37.106Z,3.47
2023-12-15T00:09:39.094Z,3.48
2023-12-15T00:11:40.870Z,3.47
2023-12-15T00:13:42.894Z,3.45
2023-12-15T00:15:44.662Z,3.43
2023-12-15T00:17:46.510Z,3.42
2023-12-15T00:19:48.430Z,3.39
2023-12-15T00:21:50.139Z,3.40
2023-12-15T00:23:51.833Z,3.38
2023-12-15T00:25:53.706Z,3.38
2023-12-15T00:27:55.437Z,3.35
2023-12-15T00:29:57.191Z,3.36
2023-12-15T00:31:58.953Z,3.37
2023-12-15T00:34:00.765Z,3.35
2023-12-15T00:36:02.594Z,3.38
2023-12-15T00:38:04.414Z,3.39
2023-12-15T00:40:06.797Z,3.39
2023-12-15T00:42:08.519Z,3.39
2023-12-15T00:44:10.259Z,3.39
2023-12-15T00:46:11.991Z,3.40
2023-12-15T00:48:13.800Z,3.41
2023-12-15T00:50:15.740Z,3.41
2023-12-15T00:52:17.534Z,3.42
2023-12-15T00:54:19.238Z,3.43
2023-12-15T00:56:20.994Z,3.42
2023-12-15T00:58:22.796Z,3.43
2023-12-15T01:00:24.483Z,3.45
2023-12-15T01:02:26.339Z,3.45
2023-12-15T01:04:28.054Z,3.48
2023-12-15T01:06:30.731Z,3.47
2023-12-15T01:08:32.522Z,3.47
2023-12-15T01:10:34.468Z,3.49
2023-12-15T01:12:36.210Z,3.50
2023-12-15T01:14:38.043Z,3.51
2023-12-15T01:16:50.598Z,3.52
2023-12-15T01:18:52.419Z,3.50
2023-12-15T01:20:54.180Z,3.53
2023-12-15T01:22:55.964Z,3.52
2023-12-15T01:24:57.732Z,3.52
2023-12-15T01:26:59.857Z,3.49
2023-12-15T01:29:01.581Z,3.49
2023-12-15T01:31:04.258Z,3.49
2023-12-15T01:33:06.274Z,3.48
2023-12-15T01:35:08.497Z,3.47
2023-12-15T01:37:10.482Z,3.46
2023-12-15T01:39:12.230Z,3.47
2023-12-15T01:41:14.003Z,3.46
2023-12-15T01:43:15.737Z,3.47
2023-12-15T01:45:17.547Z,3.47
2023-12-15T01:47:19.774Z,3.49
2023-12-15T01:49:21.817Z,3.48
2023-12-15T01:51:23.668Z,3.47
2023-12-15T01:53:25.519Z,3.47
2023-12-15T01:55:27.261Z,3.48
2023-12-15T01:57:28.959Z,3.49
2023-12-15T01:59:48.241Z,3.49
2023-12-15T02:01:49.984Z,3.48
2023-12-15T02:03:51.793Z,3.46
2023-12-15T02:05:53.800Z,3.48
2023-12-15T02:07:55.975Z,3.48
2023-12-15T02:09:59.640Z,3.48
2023-12-15T02:12:01.572Z,3.48
2023-12-15T02:14:03.372Z,3.49
2023-12-15T02:16:05.560Z,3.49
2023-12-15T02:18:07.398Z,3.49
2023-12-15T02:20:09.670Z,3.49
2023-12-15T02:22:11.455Z,3.50
2023-12-15T02:24:13.292Z,3.50
2023-12-15T02:26:15.095Z,3.49
2023-12-15T02:28:16.907Z,3.50
2023-12-15T02:30:18.649Z,3.52
2023-12-15T02:32:20.398Z,3.52
2023-12-15T02:34:22.269Z,3.51
2023-12-15T02:36:25.201Z,3.51
2023-12-15T02:38:26.944Z,3.52
2023-12-15T02:40:28.669Z,3.54
2023-12-15T02:42:30.386Z,3.52
2023-12-15T02:44:32.464Z,3.55
2023-12-15T02:46:37.892Z,3.54
2023-12-15T02:48:39.809Z,3.56
2023-12-15T02:50:41.510Z,3.57
2023-12-15T02:52:43.235Z,3.56
2023-12-15T02:54:44.939Z,3.60
2023-12-15T02:56:46.652Z,3.62
2023-12-15T02:58:48.374Z,3.63
2023-12-15T03:00:50.214Z,3.63
2023-12-15T03:02:51.908Z,3.64
2023-12-15T03:04:53.619Z,3.65
2023-12-15T03:06:56.136Z,3.66
2023-12-15T03:08:57.854Z,3.66
2023-12-15T03:10:59.668Z,3.69
2023-12-15T03:13:01.371Z,3.71
2023-12-15T03:15:03.145Z,3.72
2023-12-15T03:17:05.912Z,3.73
2023-12-15T03:19:07.627Z,3.72
2023-12-15T03:21:09.328Z,3.70
2023-12-15T03:23:11.086Z,3.71
2023-12-15T03:25:12.769Z,3.71
2023-12-15T03:27:14.512Z,3.71
2023-12-15T03:29:16.657Z,3.71
2023-12-15T03:31:18.392Z,3.68
2023-12-15T03:33:20.258Z,3.68
2023-12-15T03:35:22.029Z,3.69
2023-12-15T03:37:23.754Z,3.71
2023-12-15T03:39:25.587Z,3.70
2023-12-15T03:41:27.337Z,3.71
2023-12-15T03:43:29.137Z,3.72
2023-12-15T03:45:30.845Z,3.73
2023-12-15T03:47:33.047Z,3.72
2023-12-15T03:49:36.125Z,3.72
2023-12-15T03:51:37.827Z,3.72
2023-12-15T03:53:39.658Z,3.72
2023-12-15T03:55:41.434Z,3.74
2023-12-15T03:57:43.152Z,3.75
2023-12-15T03:59:44.957Z,3.76
2023-12-15T04:01:46.648Z,3.78
2023-12-15T04:03:48.991Z,3.77
2023-12-15T04:05:50.841Z,3.82
2023-12-15T04:07:52.607Z,3.83
2023-12-15T04:09:54.368Z,3.83
2023-12-15T04:11:56.137Z,3.84
2023-12-15T04:13:57.861Z,3.84
2023-12-15T04:16:00.474Z,3.86
2023-12-15T04:18:06.214Z,3.88
2023-12-15T04:20:11.829Z,3.93
2023-12-15T04:22:13.766Z,3.94
2023-12-15T04:24:15.502Z,3.94
2023-12-15T04:26:17.615Z,3.97
2023-12-15T04:28:19.330Z,3.99
2023-12-15T04:30:21.054Z,3.99
2023-12-15T04:32:22.801Z,4.03
2023-12-15T04:34:24.579Z,4.04
2023-12-15T04:36:28.196Z,4.06
2023-12-15T04:38:30.071Z,4.07
2023-12-15T04:40:31.948Z,4.09
2023-12-15T04:42:33.722Z,4.10
2023-12-15T04:44:37.322Z,4.11
2023-12-15T04:46:39.126Z,4.12
2023-12-15T04:48:41.092Z,4.12
2023-12-15T04:50:43.400Z,4.17
2023-12-15T04:52:45.472Z,4.18
2023-12-15T04:54:47.194Z,4.21
2023-12-15T04:56:48.913Z,4.22
2023-12-15T04:58:51.201Z,4.24
2023-12-15T05:00:52.937Z,4.26
2023-12-15T05:02:54.675Z,4.27
2023-12-15T05:04:56.501Z,4.30
2023-12-15T05:06:58.213Z,4.32
2023-12-15T05:09:00.067Z,4.33
2023-12-15T05:11:01.776Z,4.35
2023-12-15T05:13:03.762Z,4.35
2023-12-15T05:15:06.001Z,4.37
2023-12-15T05:17:07.711Z,4.41
2023-12-15T05:19:09.546Z,4.44
2023-12-15T05:21:11.292Z,4.43
2023-12-15T05:23:15.475Z,4.46
2023-12-15T05:25:17.324Z,4.47
2023-12-15T05:27:19.310Z,4.49
2023-12-15T05:29:21.135Z,4.50
2023-12-15T05:31:22.951Z,4.54
2023-12-15T05:33:25.472Z,4.55
2023-12-15T05:35:27.285Z,4.61
2023-12-15T05:37:28.965Z,4.62
2023-12-15T05:39:30.753Z,4.64
2023-12-15T05:41:32.553Z,4.67
2023-12-15T05:43:34.313Z,4.71
2023-12-15T05:45:36.004Z,4.74
2023-12-15T05:47:38.882Z,4.76
2023-12-15T05:49:41.695Z,4.76
2023-12-15T05:51:50.303Z,4.78
2023-12-15T05:53:57.542Z,4.78
2023-12-15T05:56:00.217Z,4.81
2023-12-15T05:58:02.304Z,4.81
2023-12-15T06:00:04.550Z,4.83
2023-12-15T06:02:06.721Z,4.84
2023-12-15T06:04:08.706Z,4.85
2023-12-15T06:06:13.865Z,4.88
2023-12-15T06:08:15.839Z,4.89
2023-12-15T06:10:17.634Z,4.91
2023-12-15T06:12:19.850Z,4.92
2023-12-15T06:14:24.625Z,4.95
2023-12-15T06:16:26.467Z,4.94
2023-12-15T06:18:28.388Z,4.97
2023-12-15T06:20:30.196Z,4.97
2023-12-15T06:22:31.917Z,4.99
2023-12-15T06:24:33.671Z,5.00
2023-12-15T06:26:35.438Z,5.01
2023-12-15T06:28:37.165Z,5.02
2023-12-15T06:30:39.097Z,5.02
2023-12-15T06:32:40.905Z,5.03
2023-12-15T06:34:45.791Z,5.03
2023-12-15T06:36:47.908Z,5.05
2023-12-15T06:38:49.638Z,5.06
2023-12-15T06:40:51.329Z,5.05
2023-12-15T06:42:53.067Z,5.07
2023-12-15T06:44:54.782Z,5.09
2023-12-15T06:46:56.501Z,5.09
2023-12-15T06:48:58.317Z,5.11
2023-12-15T06:51:00.064Z,5.12
2023-12-15T06:53:02.270Z,5.13
2023-12-15T06:55:04.874Z,5.14
2023-12-15T06:57:07.483Z,5.14
2023-12-15T06:59:09.208Z,5.15
2023-12-15T07:01:11.002Z,5.16
2023-12-15T07:03:12.836Z,5.17
2023-12-15T07:05:14.770Z,5.18
2023-12-15T07:07:16.470Z,5.19
2023-12-15T07:09:20.002Z,5.18
2023-12-15T07:11:22.569Z,5.21
2023-12-15T07:13:24.271Z,5.21
2023-12-15T07:15:29.182Z,5.22
2023-12-15T07:17:30.936Z,5.23
2023-12-15T07:19:32.729Z,5.24
2023-12-15T07:21:35.052Z,5.24
2023-12-15T07:23:37.026Z,5.25
2023-12-15T07:25:41.474Z,5.27
2023-12-15T07:27:43.269Z,5.27
2023-12-15T07:29:45.074Z,5.27
2023-12-15T07:31:46.837Z,5.28
2023-12-15T07:33:48.578Z,5.29
2023-12-15T07:35:50.424Z,5.31
2023-12-15T07:37:52.929Z,5.32
2023-12-15T07:39:56.062Z,5.35
2023-12-15T07:41:57.770Z,5.35
2023-12-15T07:44:00.068Z,5.35
2023-12-15T07:46:01.825Z,5.39
2023-12-15T07:48:04.174Z,5.40
2023-12-15T07:50:06.603Z,5.40
2023-12-15T07:52:08.755Z,5.41
2023-12-15T07:54:10.540Z,5.44
2023-12-15T07:56:20.421Z,5.48
2023-12-15T07:58:22.178Z,5.48
2023-12-15T08:00:24.156Z,5.50
2023-12-15T08:02:25.939Z,5.51
2023-12-15T08:04:29.404Z,5.54
2023-12-15T08:06:32.807Z,5.56
2023-12-15T08:08:34.554Z,5.57
2023-12-15T08:10:36.281Z,5.60
2023-12-15T08:12:38.020Z,5.61
2023-12-15T08:14:39.846Z,5.64
2023-12-15T08:16:41.677Z,5.66
2023-12-15T08:18:44.567Z,5.69
2023-12-15T08:20:48.671Z,5.71
2023-12-15T08:22:50.403Z,5.72
2023-12-15T08:24:52.156Z,5.74
2023-12-15T08:26:55.290Z,5.75
2023-12-15T08:28:57.451Z,5.77
2023-12-15T08:31:00.422Z,5.77
2023-12-15T08:33:03.162Z,5.82
2023-12-15T08:35:06.580Z,5.84
2023-12-15T08:37:08.941Z,5.86
2023-12-15T08:39:14.032Z,5.88
2023-12-15T08:41:17.400Z,5.94
2023-12-15T08:43:19.104Z,5.93
2023-12-15T08:45:20.947Z,5.96
2023-12-15T08:47:22.752Z,5.98
2023-12-15T08:49:24.602Z,6.01
2023-12-15T08:51:26.478Z,6.03
2023-12-15T08:53:28.288Z,6.05
2023-12-15T08:55:30.147Z,6.07
2023-12-15T08:57:32.080Z,6.09
2023-12-15T08:59:34.461Z,6.12
2023-12-15T09:01:36.291Z,6.13
2023-12-15T09:03:38.029Z,6.15
2023-12-15T09:06:01.172Z,6.19
2023-12-15T09:08:02.200Z,6.21
2023-12-15T09:10:04.278Z,6.23
2023-12-15T09:12:09.542Z,6.27
2023-12-15T09:14:11.418Z,6.29
2023-12-15T09:16:13.348Z,6.33
2023-12-15T09:18:15.733Z,6.37
2023-12-15T09:20:17.659Z,6.38
2023-12-15T09:22:19.512Z,6.40
2023-12-15T09:24:21.216Z,6.44
2023-12-15T09:26:23.069Z,6.45
2023-12-15T09:28:24.870Z,6.49
2023-12-15T09:30:26.679Z,6.51
2023-12-15T09:32:28.782Z,6.54
2023-12-15T09:34:30.626Z,6.56
2023-12-15T09:36:32.909Z,6.57
2023-12-15T09:38:34.690Z,6.61
2023-12-15T09:40:36.838Z,6.60
2023-12-15T09:42:38.820Z,6.64
2023-12-15T09:44:52.669Z,6.64
2023-12-15T09:47:02.777Z,6.68
2023-12-15T09:49:04.744Z,6.70
2023-12-15T09:51:15.005Z,6.73
2023-12-15T09:53:17.122Z,6.77
2023-12-15T09:55:19.968Z,6.79
2023-12-15T09:57:21.981Z,6.81
2023-12-15T09:59:23.894Z,6.83
2023-12-15T10:01:25.722Z,6.85
2023-12-15T10:03:27.489Z,6.89
2023-12-15T10:05:29.785Z,6.91
2023-12-15T10:07:31.512Z,6.95
2023-12-15T10:09:33.281Z,6.96
2023-12-15T10:11:35.353Z,7.02
2023-12-15T10:13:40.980Z,7.06
2023-12-15T10:15:42.732Z,7.11
2023-12-15T10:17:44.773Z,7.16
2023-12-15T10:19:47.065Z,7.19
2023-12-15T10:21:49.073Z,7.24
2023-12-15T10:23:50.845Z,7.25
2023-12-15T10:25:55.045Z,7.27
2023-12-15T10:27:56.760Z,7.30
2023-12-15T10:29:58.447Z,7.31
2023-12-15T10:32:00.392Z,7.32
2023-12-15T10:34:04.498Z,7.33
2023-12-15T10:36:08.605Z,7.37
2023-12-15T10:38:10.573Z,7.36
2023-12-15T10:40:13.007Z,7.36
2023-12-15T10:42:15.412Z,7.38
2023-12-15T10:44:17.198Z,7.42
2023-12-15T10:46:21.486Z,7.46
2023-12-15T10:48:26.351Z,7.47
2023-12-15T10:50:29.370Z,7.48
2023-12-15T10:52:35.111Z,7.50
2023-12-15T10:54:38.703Z,7.53
2023-12-15T10:56:40.522Z,7.54
2023-12-15T10:58:42.708Z,7.55
2023-12-15T11:00:44.654Z,7.57
2023-12-15T11:02:48.092Z,7.59
2023-12-15T11:04:50.540Z,7.61
2023-12-15T11:06:52.460Z,7.62
2023-12-15T11:08:54.424Z,7.61
2023-12-15T11:10:56.703Z,7.60
2023-12-15T11:12:58.442Z,7.61
2023-12-15T11:15:01.538Z,7.65
2023-12-15T11:17:03.384Z,7.67
2023-12-15T11:19:05.562Z,7.67
2023-12-15T11:21:12.880Z,7.70
2023-12-15T11:23:15.246Z,7.71
2023-12-15T11:25:28.474Z,7.74
2023-12-15T11:27:30.273Z,7.76
2023-12-15T11:29:36.843Z,7.72
2023-12-15T11:31:42.148Z,7.72
2023-12-15T11:33:44.435Z,7.69
2023-12-15T11:35:53.036Z,7.66
2023-12-15T11:37:54.785Z,7.65
2023-12-15T11:39:57.588Z,7.65
2023-12-15T11:42:01.224Z,7.62
2023-12-15T11:44:02.927Z,7.60
2023-12-15T11:46:05.448Z,7.61
2023-12-15T11:48:08.094Z,7.62
2023-12-15T11:50:10.152Z,7.65
2023-12-15T11:52:15.645Z,7.63
2023-12-15T11:54:17.435Z,7.64
2023-12-15T11:56:20.234Z,7.68
2023-12-15T11:58:23.553Z,7.69
2023-12-15T12:00:25.244Z,7.69
2023-12-15T12:02:27.150Z,7.68
2023-12-15T12:04:31.378Z,7.72
2023-12-15T12:06:34.014Z,7.72
2023-12-15T12:08:37.561Z,7.76
2023-12-15T12:10:40.958Z,7.76
2023-12-15T12:12:43.309Z,7.78
2023-12-15T12:14:45.126Z,7.78
2023-12-15T12:16:53.715Z,7.79
2023-12-15T12:18:57.203Z,7.77
2023-12-15T12:21:10.264Z,7.79
2023-12-15T12:23:12.072Z,7.81
2023-12-15T12:25:17.963Z,7.80
2023-12-15T12:27:19.827Z,7.80
2023-12-15T12:29:21.562Z,7.82
2023-12-15T12:31:23.323Z,7.83
2023-12-15T12:33:26.155Z,7.83
2023-12-15T12:35:28.047Z,7.84
2023-12-15T12:37:31.193Z,7.85
2023-12-15T12:39:32.868Z,7.86
2023-12-15T12:41:35.533Z,7.87
2023-12-15T12:43:37.260Z,7.88
2023-12-15T12:45:39.039Z,7.91
2023-12-15T12:47:43.037Z,7.93
2023-12-15T12:49:52.544Z,7.90
2023-12-15T12:51:54.998Z,7.90
2023-12-15T12:53:56.679Z,7.90
2023-12-15T12:55:58.353Z,7.92
2023-12-15T12:58:01.996Z,7.92
2023-12-15T13:00:11.067Z,7.93
2023-12-15T13:02:18.831Z,7.93
2023-12-15T13:04:23.398Z,7.92
2023-12-15T13:06:25.207Z,7.95
2023-12-15T13:08:27.084Z,7.92
2023-12-15T13:10:29.005Z,7.93
2023-12-15T13:12:30.710Z,7.92
2023-12-15T13:14:32.393Z,7.91
2023-12-15T13:16:34.231Z,7.89
2023-12-15T13:18:37.038Z,7.90
2023-12-15T13:20:40.506Z,7.93
2023-12-15T13:22:48.036Z,7.91
2023-12-15T13:24:57.591Z,7.92
2023-12-15T13:27:01.697Z,7.91
2023-12-15T13:29:05.168Z,7.90
2023-12-15T13:31:06.950Z,7.91
2023-12-15T13:33:08.862Z,7.93
2023-12-15T13:35:14.265Z,7.94
2023-12-15T13:37:16.534Z,7.94
2023-12-15T13:39:19.541Z,7.94
2023-12-15T13:41:21.631Z,7.95
2023-12-15T13:43:25.575Z,7.94
2023-12-15T13:45:27.404Z,7.95
2023-12-15T13:47:29.211Z,7.96
2023-12-15T13:49:31.101Z,7.96
2023-12-15T13:51:33.262Z,7.95
2023-12-15T13:53:35.082Z,7.95
2023-12-15T13:55:36.930Z,7.95
2023-12-15T13:57:38.953Z,7.93
2023-12-15T13:59:40.756Z,7.94
2023-12-15T14:01:42.482Z,7.96
2023-12-15T14:03:44.967Z,7.96
2023-12-15T14:05:46.839Z,7.97
2023-12-15T14:07:48.757Z,7.96
2023-12-15T14:09:50.452Z,7.95
2023-12-15T14:11:52.209Z,7.95
2023-12-15T14:13:54.012Z,7.93
2023-12-15T14:15:55.762Z,7.92
2023-12-15T14:18:10.007Z,7.92
2023-12-15T14:20:12.545Z,7.92
2023-12-15T14:22:15.718Z,7.92
2023-12-15T14:24:19.473Z,7.93
2023-12-15T14:26:21.406Z,7.91
2023-12-15T14:28:23.149Z,7.92
2023-12-15T14:30:24.967Z,7.91
2023-12-15T14:32:27.090Z,7.91
2023-12-15T14:34:29.083Z,7.88
2023-12-15T14:36:30.911Z,7.86
2023-12-15T14:38:33.404Z,7.84
2023-12-15T14:40:35.134Z,7.83
2023-12-15T14:42:37.405Z,7.81
2023-12-15T14:44:39.337Z,7.82
2023-12-15T14:46:41.533Z,7.82
2023-12-15T14:48:44.093Z,7.80
2023-12-15T14:50:47.063Z,7.78
2023-12-15T14:52:49.733Z,7.77
2023-12-15T14:54:51.632Z,7.77
2023-12-15T14:56:53.607Z,7.76
2023-12-15T14:58:55.386Z,7.76
2023-12-15T15:00:57.273Z,7.76
2023-12-15T15:02:59.062Z,7.73
2023-12-15T15:05:00.968Z,7.74
2023-12-15T15:07:04.809Z,7.71
2023-12-15T15:09:06.603Z,7.70
2023-12-15T15:11:08.395Z,7.69
2023-12-15T15:13:10.251Z,7.69
2023-12-15T15:15:12.116Z,7.67
2023-12-15T15:17:13.910Z,7.67
2023-12-15T15:19:15.912Z,7.66
2023-12-15T15:21:18.128Z,7.66
2023-12-15T15:23:19.924Z,7.67
2023-12-15T15:25:21.831Z,7.67
2023-12-15T15:27:23.529Z,7.65
2023-12-15T15:29:25.275Z,7.66
2023-12-15T15:31:27.157Z,7.67
2023-12-15T15:33:31.579Z,7.67
2023-12-15T15:35:33.483Z,7.68
2023-12-15T15:37:38.744Z,7.66
2023-12-15T15:39:40.585Z,7.67
2023-12-15T15:41:42.325Z,7.65
2023-12-15T15:43:44.055Z,7.64
2023-12-15T15:45:45.864Z,7.63
2023-12-15T15:47:55.710Z,7.63
2023-12-15T15:49:57.497Z,7.65
2023-12-15T15:51:59.280Z,7.65
2023-12-15T15:54:01.090Z,7.65
2023-12-15T15:56:02.869Z,7.65
2023-12-15T15:58:04.656Z,7.63
2023-12-15T16:00:09.552Z,7.63
2023-12-15T16:02:11.657Z,7.62
2023-12-15T16:04:13.878Z,7.61
2023-12-15T16:06:15.976Z,7.60
2023-12-15T16:08:18.451Z,7.58
2023-12-15T16:10:20.509Z,7.55
2023-12-15T16:12:22.430Z,7.56
2023-12-15T16:14:24.202Z,7.55
2023-12-15T16:16:25.999Z,7.53
2023-12-15T16:18:27.854Z,7.51
2023-12-15T16:20:29.613Z,7.46
2023-12-15T16:22:31.314Z,7.43
2023-12-15T16:24:33.022Z,7.42
2023-12-15T16:26:34.808Z,7.43
2023-12-15T16:28:36.574Z,7.39
2023-12-15T16:30:38.392Z,7.36
2023-12-15T16:32:41.350Z,7.34
2023-12-15T16:34:43.200Z,7.33
2023-12-15T16:36:44.936Z,7.33
2023-12-15T16:38:46.843Z,7.33
2023-12-15T16:40:48.946Z,7.35
2023-12-15T16:42:50.745Z,7.36
2023-12-15T16:44:52.623Z,7.37
2023-12-15T16:46:54.357Z,7.37
2023-12-15T16:48:56.804Z,7.38
2023-12-15T16:50:58.724Z,7.38
2023-12-15T16:53:00.408Z,7.41
2023-12-15T16:55:02.207Z,7.40
2023-12-15T16:57:05.104Z,7.40
2023-12-15T16:59:07.887Z,7.42
2023-12-15T17:01:09.714Z,7.41
2023-12-15T17:03:11.491Z,7.38
2023-12-15T17:05:13.419Z,7.37
2023-12-15T17:07:15.191Z,7.36
2023-12-15T17:09:17.519Z,7.36
2023-12-15T17:11:19.500Z,7.36
2023-12-15T17:13:21.245Z,7.35
2023-12-15T17:15:22.973Z,7.35
2023-12-15T17:17:24.850Z,7.35
2023-12-15T17:19:26.800Z,7.36
2023-12-15T17:21:29.028Z,7.36
2023-12-15T17:23:31.586Z,7.37
2023-12-15T17:25:33.528Z,7.36
2023-12-15T17:27:35.478Z,7.36
2023-12-15T17:29:44.360Z,7.34
2023-12-15T17:31:52.562Z,7.34
2023-12-15T17:33:54.636Z,7.32
2023-12-15T17:35:58.593Z,7.32
2023-12-15T17:38:00.386Z,7.30
2023-12-15T17:40:03.122Z,7.29
2023-12-15T17:42:04.949Z,7.28
2023-12-15T17:44:07.655Z,7.26
2023-12-15T17:46:09.499Z,7.21
2023-12-15T17:48:15.384Z,7.21
2023-12-15T17:50:17.321Z,7.20
2023-12-15T17:52:19.670Z,7.19
2023-12-15T17:54:21.500Z,7.17
2023-12-15T17:56:23.282Z,7.12
2023-12-15T17:58:25.104Z,7.09
2023-12-15T18:00:26.888Z,7.04
2023-12-15T18:02:28.586Z,7.01
2023-12-15T18:04:30.506Z,6.98
2023-12-15T18:06:32.457Z,6.97
2023-12-15T18:08:34.169Z,6.94
2023-12-15T18:10:36.004Z,6.89
2023-12-15T18:12:37.928Z,6.85
2023-12-15T18:14:41.887Z,6.79
2023-12-15T18:16:43.732Z,6.74
2023-12-15T18:18:45.542Z,6.73
2023-12-15T18:20:47.549Z,6.72
2023-12-15T18:22:49.364Z,6.70
2023-12-15T18:24:51.155Z,6.69
2023-12-15T18:26:52.857Z,6.68
2023-12-15T18:28:54.598Z,6.64
2023-12-15T18:30:56.438Z,6.64
2023-12-15T18:32:58.496Z,6.62
2023-12-15T18:35:00.454Z,6.61
2023-12-15T18:37:02.878Z,6.61
2023-12-15T18:39:06.407Z,6.61
2023-12-15T18:41:08.132Z,6.59
2023-12-15T18:43:10.037Z,6.56
2023-12-15T18:45:12.059Z,6.57
2023-12-15T18:47:13.760Z,6.54
2023-12-15T18:49:15.717Z,6.52
2023-12-15T18:51:19.480Z,6.52
2023-12-15T18:53:22.042Z,6.52
2023-12-15T18:55:24.106Z,6.52
2023-12-15T18:57:32.418Z,6.53
2023-12-15T18:59:38.112Z,6.53
2023-12-15T19:01:40.066Z,6.54
2023-12-15T19:03:42.429Z,6.55
2023-12-15T19:05:44.367Z,6.53
2023-12-15T19:07:48.655Z,6.52
2023-12-15T19:09:50.400Z,6.50
2023-12-15T19:11:53.788Z,6.45
2023-12-15T19:13:56.224Z,6.41
2023-12-15T19:15:58.089Z,6.41
2023-12-15T19:17:59.921Z,6.40
2023-12-15T19:20:01.864Z,6.42
2023-12-15T19:22:03.803Z,6.45
2023-12-15T19:24:08.349Z,6.49
2023-12-15T19:26:10.632Z,6.49
2023-12-15T19:28:12.605Z,6.53
2023-12-15T19:30:14.520Z,6.54
2023-12-15T19:32:16.281Z,6.54
2023-12-15T19:34:18.150Z,6.56
2023-12-15T19:36:20.193Z,6.56
2023-12-15T19:38:22.369Z,6.57
2023-12-15T19:40:24.257Z,6.58
2023-12-15T19:42:26.095Z,6.58
2023-12-15T19:44:28.910Z,6.56
2023-12-15T19:46:37.085Z,6.56
2023-12-15T19:48:38.957Z,6.57
2023-12-15T19:50:40.785Z,6.57
2023-12-15T19:52:44.991Z,6.56
2023-12-15T19:54:46.787Z,6.57
2023-12-15T19:56:48.569Z,6.56
2023-12-15T19:58:51.035Z,6.60
2023-12-15T20:00:53.843Z,6.58
2023-12-15T20:02:55.582Z,6.59
2023-12-15T20:05:00.708Z,6.55
2023-12-15T20:07:03.038Z,6.54
2023-12-15T20:09:05.823Z,6.55
2023-12-15T20:11:07.784Z,6.55
2023-12-15T20:13:09.516Z,6.55
2023-12-15T20:15:13.238Z,6.55
2023-12-15T20:17:15.162Z,6.53
2023-12-15T20:19:17.092Z,6.53
2023-12-15T20:21:19.371Z,6.52
2023-12-15T20:23:21.737Z,6.54
2023-12-15T20:25:23.500Z,6.50
2023-12-15T20:27:25.510Z,6.52
2023-12-15T20:29:27.355Z,6.49
2023-12-15T20:31:29.214Z,6.49
2023-12-15T20:33:31.557Z,6.47
2023-12-15T20:35:33.370Z,6.46
2023-12-15T20:37:35.215Z,6.45
2023-12-15T20:39:36.989Z,6.47
2023-12-15T20:41:38.678Z,6.47
2023-12-15T20:43:40.421Z,6.43
2023-12-15T20:45:42.729Z,6.41
2023-12-15T20:47:44.493Z,6.41
2023-12-15T20:49:46.331Z,6.44
2023-12-15T20:51:48.874Z,6.41
2023-12-15T20:53:50.756Z,6.43
2023-12-15T20:55:52.485Z,6.43
2023-12-15T20:57:54.248Z,6.44
2023-12-15T20:59:55.966Z,6.44
2023-12-15T21:01:57.794Z,6.42
2023-12-15T21:04:02.000Z,6.41
2023-12-15T21:06:03.990Z,6.42
2023-12-15T21:08:05.700Z,6.41
2023-12-15T21:10:08.406Z,6.40
2023-12-15T21:12:10.202Z,6.37
2023-12-15T21:14:11.906Z,6.38
2023-12-15T21:16:23.831Z,6.42
2023-12-15T21:18:25.790Z,6.43
2023-12-15T21:20:27.811Z,6.41
2023-12-15T21:22:29.562Z,6.42
2023-12-15T21:24:31.260Z,6.40
2023-12-15T21:26:33.418Z,6.39
2023-12-15T21:28:35.377Z,6.39
2023-12-15T21:30:37.107Z,6.41
2023-12-15T21:32:38.869Z,6.39
2023-12-15T21:34:41.163Z,6.39
2023-12-15T21:36:43.287Z,6.41
2023-12-15T21:38:45.063Z,6.42
2023-12-15T21:40:46.759Z,6.43
2023-12-15T21:42:48.530Z,6.44
2023-12-15T21:44:50.267Z,6.42
2023-12-15T21:46:52.016Z,6.43
2023-12-15T21:48:56.500Z,6.43
2023-12-15T21:50:58.334Z,6.42
2023-12-15T21:53:00.266Z,6.45
2023-12-15T21:55:02.216Z,6.43
2023-12-15T21:57:08.159Z,6.43
2023-12-15T21:59:10.006Z,6.45
2023-12-15T22:01:16.380Z,6.44
2023-12-15T22:03:19.200Z,6.43
2023-12-15T22:05:21.014Z,6.41
2023-12-15T22:07:22.770Z,6.40
2023-12-15T22:09:24.512Z,6.39
2023-12-15T22:11:29.343Z,6.37
2023-12-15T22:13:31.090Z,6.37
2023-12-15T22:15:32.807Z,6.35
2023-12-15T22:17:34.801Z,6.36
2023-12-15T22:19:36.845Z,6.31
2023-12-15T22:21:38.626Z,6.30
2023-12-15T22:23:44.839Z,6.28
2023-12-15T22:25:46.563Z,6.27
2023-12-15T22:27:48.308Z,6.26
2023-12-15T22:29:50.254Z,6.26
2023-12-15T22:31:52.081Z,6.24
2023-12-15T22:33:53.915Z,6.23
2023-12-15T22:35:55.706Z,6.24
2023-12-15T22:37:57.453Z,6.24
2023-12-15T22:40:01.634Z,6.22
2023-12-15T22:42:05.715Z,6.21
2023-12-15T22:44:07.471Z,6.23
2023-12-15T22:46:09.311Z,6.21
2023-12-15T22:48:11.974Z,6.22
2023-12-15T22:50:13.894Z,6.22
2023-12-15T22:52:15.709Z,6.21
2023-12-15T22:54:17.461Z,6.21
2023-12-15T22:56:19.261Z,6.19
2023-12-15T22:58:21.510Z,6.17
2023-12-15T23:00:30.641Z,6.17
2023-12-15T23:02:32.567Z,6.15
2023-12-15T23:04:34.438Z,6.14
2023-12-15T23:06:36.574Z,6.14
2023-12-15T23:08:38.338Z,6.17
2023-12-15T23:10:40.026Z,6.18
2023-12-15T23:12:41.751Z,6.21
2023-12-15T23:14:43.690Z,6.21
2023-12-15T23:16:45.498Z,6.21
2023-12-15T23:18:48.713Z,6.24
2023-12-15T23:20:50.722Z,6.27
2023-12-15T23:22:52.481Z,6.29
2023-12-15T23:24:54.253Z,6.31
2023-12-15T23:26:55.966Z,6.32
2023-12-15T23:28:57.834Z,6.33
2023-12-15T23:30:59.734Z,6.36
2023-12-15T23:33:01.555Z,6.39
2023-12-15T23:35:04.303Z,6.41
2023-12-15T23:37:06.322Z,6.43
2023-12-15T23:39:08.097Z,6.45
2023-12-15T23:41:10.031Z,6.45
2023-12-15T23:43:11.962Z,6.45
2023-12-15T23:45:13.882Z,6.46
2023-12-15T23:47:15.636Z,6.49
2023-12-15T23:49:17.727Z,6.50
2023-12-15T23:51:19.480Z,6.49
2023-12-15T23:53:21.207Z,6.50
2023-12-15T23:55:23.069Z,6.51
2023-12-15T23:57:24.844Z,6.52
2023-12-15T23:59:26.570Z,6.53
